sensor_id;sensor_type;location;lat;lon;timestamp;temperature;humidity
46458;DHT22;32155;54.076;12.092;2023-12-04T04:11:03;-2.70;99.90
46458;DHT22;32155;54.076;12.092;2023-12-04T04:13:32;-2.70;99.90
46458;DHT22;32155;54.076;12.092;2023-12-04T04:15:57;-2.70;99.90
46458;DHT22;32155;54.076;12.092;2023-12-04T04:18:23;-2.90;99.90
46458;DHT22;32155;54.076;12.092;2023-12-04T04:20:48;-2.80;99.90
46458;DHT22;32155;54.076;12.092;2023-12-04T04:23:16;-2.80;99.90
46458;DHT22;32155;54.076;12.092;2023-12-04T04:25:41;-2.90;99.90
46458;DHT22;32155;54.076;12.092;2023-12-04T04:28:07;-3.00;99.90
46458;DHT22;32155;54.076;12.092;2023-12-04T04:30:32;-2.90;99.90
46458;DHT22;32155;54.076;12.092;2023-12-04T04:33:05;-2.90;99.90
46458;DHT22;32155;54.076;12.092;2023-12-04T04:35:33;-3.00;99.90
46458;DHT22;32155;54.076;12.092;2023-12-04T04:37:59;-3.10;99.90
46458;DHT22;32155;54.076;12.092;2023-12-04T04:40:24;-3.10;99.90
46458;DHT22;32155;54.076;12.092;2023-12-04T04:42:50;-3.10;99.90
46458;DHT22;32155;54.076;12.092;2023-12-04T04:45:15;-3.20;99.90
46458;DHT22;32155;54.076;12.092;2023-12-04T04:47:41;-3.20;99.90
46458;DHT22;32155;54.076;12.092;2023-12-04T04:50:06;-3.30;99.90
46458;DHT22;32155;54.076;12.092;2023-12-04T04:52:32;-3.30;99.90
46458;DHT22;32155;54.076;12.092;2023-12-04T04:55:00;-3.30;99.90
46458;DHT22;32155;54.076;12.092;2023-12-04T04:57:26;-3.40;99.90
46458;DHT22;32155;54.076;12.092;2023-12-04T04:59:51;-3.50;99.90
46458;DHT22;32155;54.076;12.092;2023-12-04T05:02:19;-3.40;99.90
46458;DHT22;32155;54.076;12.092;2023-12-04T05:04:45;-3.50;99.90
46458;DHT22;32155;54.076;12.092;2023-12-04T05:07:10;-3.50;99.90
46458;DHT22;32155;54.076;12.092;2023-12-04T05:09:36;-3.60;99.90
46458;DHT22;32155;54.076;12.092;2023-12-04T05:12:04;-3.50;99.90
46458;DHT22;32155;54.076;12.092;2023-12-04T05:14:30;-3.60;99.90
46458;DHT22;32155;54.076;12.092;2023-12-04T05:16:56;-3.70;99.90
46458;DHT22;32155;54.076;12.092;2023-12-04T05:19:21;-3.70;99.90
46458;DHT22;32155;54.076;12.092;2023-12-04T05:21:47;-3.50;99.90
46458;DHT22;32155;54.076;12.092;2023-12-04T05:24:18;-3.40;99.90
46458;DHT22;32155;54.076;12.092;2023-12-04T05:26:44;-3.40;99.90
46458;DHT22;32155;54.076;12.092;2023-12-04T05:29:09;-3.50;99.90
46458;DHT22;32155;54.076;12.092;2023-12-04T05:31:35;-3.30;99.90
46458;DHT22;32155;54.076;12.092;2023-12-04T05:34:00;-3.30;99.90
46458;DHT22;32155;54.076;12.092;2023-12-04T05:36:28;-3.30;99.90
46458;DHT22;32155;54.076;12.092;2023-12-04T05:39:13;-3.40;99.90
46458;DHT22;32155;54.076;12.092;2023-12-04T05:41:39;-3.40;99.90
46458;DHT22;32155;54.076;12.092;2023-12-04T05:44:04;-3.40;99.90
46458;DHT22;32155;54.076;12.092;2023-12-04T05:46:30;-3.50;99.90
46458;DHT22;32155;54.076;12.092;2023-12-04T05:48:57;-3.40;99.90
46458;DHT22;32155;54.076;12.092;2023-12-04T05:51:24;-3.50;99.90
46458;DHT22;32155;54.076;12.092;2023-12-04T05:53:50;-3.50;99.90
46458;DHT22;32155;54.076;12.092;2023-12-04T05:56:15;-3.60;99.90
46458;DHT22;32155;54.076;12.092;2023-12-04T05:58:42;-3.50;99.90
46458;DHT22;32155;54.076;12.092;2023-12-04T06:01:07;-3.50;99.90
46458;DHT22;32155;54.076;12.092;2023-12-04T06:03:33;-3.50;99.90
46458;DHT22;32155;54.076;12.092;2023-12-04T06:05:59;-3.60;99.90
46458;DHT22;32155;54.076;12.092;2023-12-04T06:08:25;-3.60;99.90
46458;DHT22;32155;54.076;12.092;2023-12-04T06:10:50;-3.70;99.90
46458;DHT22;32155;54.076;12.092;2023-12-04T06:13:16;-3.70;99.90
46458;DHT22;32155;54.076;12.092;2023-12-04T06:15:43;-3.70;99.90
46458;DHT22;32155;54.076;12.092;2023-12-04T06:18:09;-3.60;99.90
46458;DHT22;32155;54.076;12.092;2023-12-04T06:20:35;-3.70;99.90
46458;DHT22;32155;54.076;12.092;2023-12-04T06:23:02;-3.70;99.90
46458;DHT22;32155;54.076;12.092;2023-12-04T06:25:30;-3.70;99.90
46458;DHT22;32155;54.076;12.092;2023-12-04T06:27:56;-3.80;99.90
46458;DHT22;32155;54.076;12.092;2023-12-04T06:30:22;-3.80;99.90
46458;DHT22;32155;54.076;12.092;2023-12-04T06:32:49;-3.90;99.90
46458;DHT22;32155;54.076;12.092;2023-12-04T06:35:14;-3.90;99.90
46458;DHT22;32155;54.076;12.092;2023-12-04T06:37:40;-3.90;99.90
46458;DHT22;32155;54.076;12.092;2023-12-04T06:40:06;-3.80;99.90
46458;DHT22;32155;54.076;12.092;2023-12-04T06:42:37;-3.90;99.90
46458;DHT22;32155;54.076;12.092;2023-12-04T06:45:02;-3.80;99.90
46458;DHT22;32155;54.076;12.092;2023-12-04T06:47:28;-3.90;99.90
46458;DHT22;32155;54.076;12.092;2023-12-04T06:49:58;-4.00;99.90
46458;DHT22;32155;54.076;12.092;2023-12-04T06:52:24;-4.10;99.90
46458;DHT22;32155;54.076;12.092;2023-12-04T06:54:52;-4.20;99.90
46458;DHT22;32155;54.076;12.092;2023-12-04T06:57:18;-4.10;99.90
46458;DHT22;32155;54.076;12.092;2023-12-04T06:59:44;-4.20;99.90
46458;DHT22;32155;54.076;12.092;2023-12-04T07:02:13;-4.20;99.90
46458;DHT22;32155;54.076;12.092;2023-12-04T07:05:01;-4.30;99.90
46458;DHT22;32155;54.076;12.092;2023-12-04T07:07:30;-4.30;99.90
46458;DHT22;32155;54.076;12.092;2023-12-04T07:09:58;-4.30;99.90
46458;DHT22;32155;54.076;12.092;2023-12-04T07:12:26;-4.20;99.90
46458;DHT22;32155;54.076;12.092;2023-12-04T07:14:52;-4.20;99.90
46458;DHT22;32155;54.076;12.092;2023-12-04T07:17:17;-4.20;99.90
46458;DHT22;32155;54.076;12.092;2023-12-04T07:19:49;-4.20;99.90
46458;DHT22;32155;54.076;12.092;2023-12-04T07:22:15;-4.20;99.90
46458;DHT22;32155;54.076;12.092;2023-12-04T07:24:42;-4.20;99.90
46458;DHT22;32155;54.076;12.092;2023-12-04T07:27:08;-4.20;99.90
46458;DHT22;32155;54.076;12.092;2023-12-04T07:29:34;-4.10;99.90
46458;DHT22;32155;54.076;12.092;2023-12-04T07:32:03;-4.10;99.90
46458;DHT22;32155;54.076;12.092;2023-12-04T07:34:29;-4.00;99.90
46458;DHT22;32155;54.076;12.092;2023-12-04T07:36:55;-4.00;99.90
46458;DHT22;32155;54.076;12.092;2023-12-04T07:39:21;-3.90;99.90
46458;DHT22;32155;54.076;12.092;2023-12-04T07:41:46;-3.90;99.90
46458;DHT22;32155;54.076;12.092;2023-12-04T07:44:14;-3.80;99.90
46458;DHT22;32155;54.076;12.092;2023-12-04T07:46:40;-3.60;99.90
46458;DHT22;32155;54.076;12.092;2023-12-04T07:49:06;-3.70;99.90
46458;DHT22;32155;54.076;12.092;2023-12-04T07:51:31;-3.70;99.90
46458;DHT22;32155;54.076;12.092;2023-12-04T07:53:57;-3.60;99.90
46458;DHT22;32155;54.076;12.092;2023-12-04T07:56:23;-3.70;99.90
46458;DHT22;32155;54.076;12.092;2023-12-04T07:58:48;-3.60;99.90
46458;DHT22;32155;54.076;12.092;2023-12-04T08:01:14;-3.60;99.90
46458;DHT22;32155;54.076;12.092;2023-12-04T08:03:40;-3.50;99.90
46458;DHT22;32155;54.076;12.092;2023-12-04T08:06:05;-3.50;99.90
46458;DHT22;32155;54.076;12.092;2023-12-04T08:08:31;-3.50;99.90
46458;DHT22;32155;54.076;12.092;2023-12-04T08:10:57;-3.40;99.90
46458;DHT22;32155;54.076;12.092;2023-12-04T08:13:24;-3.40;99.90
46458;DHT22;32155;54.076;12.092;2023-12-04T08:15:49;-3.50;99.90
46458;DHT22;32155;54.076;12.092;2023-12-04T08:18:15;-3.40;99.90
46458;DHT22;32155;54.076;12.092;2023-12-04T08:20:43;-3.60;99.90
46458;DHT22;32155;54.076;12.092;2023-12-04T08:23:12;-3.40;99.90
46458;DHT22;32155;54.076;12.092;2023-12-04T08:25:40;-3.30;99.90
46458;DHT22;32155;54.076;12.092;2023-12-04T08:28:06;-3.30;99.90
46458;DHT22;32155;54.076;12.092;2023-12-04T08:30:31;-3.10;99.90
46458;DHT22;32155;54.076;12.092;2023-12-04T08:32:57;-3.00;99.90
46458;DHT22;32155;54.076;12.092;2023-12-04T08:35:22;-2.90;99.90
46458;DHT22;32155;54.076;12.092;2023-12-04T08:37:48;-2.90;99.90
46458;DHT22;32155;54.076;12.092;2023-12-04T08:40:13;-3.00;99.90
46458;DHT22;32155;54.076;12.092;2023-12-04T08:42:39;-2.90;99.90
46458;DHT22;32155;54.076;12.092;2023-12-04T08:45:08;-2.80;99.90
46458;DHT22;32155;54.076;12.092;2023-12-04T08:47:34;-2.70;99.90
46458;DHT22;32155;54.076;12.092;2023-12-04T08:50:00;-2.60;99.90
46458;DHT22;32155;54.076;12.092;2023-12-04T08:52:28;-2.60;99.90
46458;DHT22;32155;54.076;12.092;2023-12-04T08:54:54;-2.60;99.90
46458;DHT22;32155;54.076;12.092;2023-12-04T08:57:19;-2.50;99.90
46458;DHT22;32155;54.076;12.092;2023-12-04T08:59:45;-2.50;99.90
46458;DHT22;32155;54.076;12.092;2023-12-04T09:02:11;-2.40;99.90
46458;DHT22;32155;54.076;12.092;2023-12-04T09:04:37;-2.40;99.90
46458;DHT22;32155;54.076;12.092;2023-12-04T09:07:02;-2.40;99.90
46458;DHT22;32155;54.076;12.092;2023-12-04T09:09:28;-2.50;99.90
46458;DHT22;32155;54.076;12.092;2023-12-04T09:11:54;-2.40;99.90
46458;DHT22;32155;54.076;12.092;2023-12-04T09:14:19;-2.40;99.90
46458;DHT22;32155;54.076;12.092;2023-12-04T09:16:45;-2.60;99.90
46458;DHT22;32155;54.076;12.092;2023-12-04T09:19:10;-2.50;99.90
46458;DHT22;32155;54.076;12.092;2023-12-04T09:21:38;-2.50;99.90
46458;DHT22;32155;54.076;12.092;2023-12-04T09:24:03;-2.50;99.90
46458;DHT22;32155;54.076;12.092;2023-12-04T09:26:29;-2.50;99.90
46458;DHT22;32155;54.076;12.092;2023-12-04T09:28:55;-2.40;99.90
46458;DHT22;32155;54.076;12.092;2023-12-04T09:31:20;-2.40;99.90
46458;DHT22;32155;54.076;12.092;2023-12-04T09:33:46;-2.40;99.90
46458;DHT22;32155;54.076;12.092;2023-12-04T09:36:12;-2.40;99.90
46458;DHT22;32155;54.076;12.092;2023-12-04T09:38:38;-2.20;99.90
46458;DHT22;32155;54.076;12.092;2023-12-04T09:41:04;-2.20;99.90
46458;DHT22;32155;54.076;12.092;2023-12-04T09:43:33;-2.10;99.90
46458;DHT22;32155;54.076;12.092;2023-12-04T09:45:59;-2.10;99.90
46458;DHT22;32155;54.076;12.092;2023-12-04T09:48:25;-2.10;99.90
46458;DHT22;32155;54.076;12.092;2023-12-04T09:50:51;-2.10;99.90
46458;DHT22;32155;54.076;12.092;2023-12-04T09:53:17;-2.20;99.90
46458;DHT22;32155;54.076;12.092;2023-12-04T09:55:54;-2.20;99.90
46458;DHT22;32155;54.076;12.092;2023-12-04T09:58:21;-2.20;99.90
46458;DHT22;32155;54.076;12.092;2023-12-04T10:00:50;-2.30;99.90
46458;DHT22;32155;54.076;12.092;2023-12-04T10:03:20;-2.20;99.90
46458;DHT22;32155;54.076;12.092;2023-12-04T10:05:48;-2.00;99.90
46458;DHT22;32155;54.076;12.092;2023-12-04T10:08:15;-2.10;99.90
46458;DHT22;32155;54.076;12.092;2023-12-04T10:10:43;-2.10;99.90
46458;DHT22;32155;54.076;12.092;2023-12-04T10:13:11;-2.00;99.90
46458;DHT22;32155;54.076;12.092;2023-12-04T10:15:50;-1.90;99.90
46458;DHT22;32155;54.076;12.092;2023-12-04T10:18:34;-1.90;99.90
46458;DHT22;32155;54.076;12.092;2023-12-04T10:21:00;-1.80;99.90
46458;DHT22;32155;54.076;12.092;2023-12-04T22:34:14;-1.40;99.90
46458;DHT22;32155;54.076;12.092;2023-12-04T22:36:53;-1.40;99.90
46458;DHT22;32155;54.076;12.092;2023-12-04T22:39:19;-1.40;99.90
46458;DHT22;32155;54.076;12.092;2023-12-04T22:41:47;-1.40;99.90
46458;DHT22;32155;54.076;12.092;2023-12-04T22:44:16;-1.40;99.90
46458;DHT22;32155;54.076;12.092;2023-12-04T22:46:47;-1.50;99.90
46458;DHT22;32155;54.076;12.092;2023-12-04T22:49:12;-1.40;99.90
46458;DHT22;32155;54.076;12.092;2023-12-04T22:51:40;-1.40;99.90
46458;DHT22;32155;54.076;12.092;2023-12-04T22:54:08;-1.40;99.90
46458;DHT22;32155;54.076;12.092;2023-12-04T22:56:33;-1.40;99.90
46458;DHT22;32155;54.076;12.092;2023-12-04T22:59:01;-1.50;99.90
46458;DHT22;32155;54.076;12.092;2023-12-04T23:01:27;-1.40;99.90
46458;DHT22;32155;54.076;12.092;2023-12-04T23:03:52;-1.40;99.90
46458;DHT22;32155;54.076;12.092;2023-12-04T23:06:18;-1.40;99.90
46458;DHT22;32155;54.076;12.092;2023-12-04T23:08:43;-1.40;99.90
46458;DHT22;32155;54.076;12.092;2023-12-04T23:11:10;-1.40;99.90
46458;DHT22;32155;54.076;12.092;2023-12-04T23:13:36;-1.50;99.90
46458;DHT22;32155;54.076;12.092;2023-12-04T23:16:02;-1.40;99.90
46458;DHT22;32155;54.076;12.092;2023-12-04T23:18:27;-1.50;99.90
46458;DHT22;32155;54.076;12.092;2023-12-04T23:20:55;-1.50;99.90
46458;DHT22;32155;54.076;12.092;2023-12-04T23:23:23;-1.50;99.90
46458;DHT22;32155;54.076;12.092;2023-12-04T23:25:48;-1.60;99.90
46458;DHT22;32155;54.076;12.092;2023-12-04T23:28:14;-1.60;99.90
46458;DHT22;32155;54.076;12.092;2023-12-04T23:30:39;-1.60;99.90
46458;DHT22;32155;54.076;12.092;2023-12-04T23:33:08;-1.70;99.90
46458;DHT22;32155;54.076;12.092;2023-12-04T23:35:34;-1.70;99.90
46458;DHT22;32155;54.076;12.092;2023-12-04T23:38:02;-1.70;99.90
46458;DHT22;32155;54.076;12.092;2023-12-04T23:40:27;-1.80;99.90
46458;DHT22;32155;54.076;12.092;2023-12-04T23:42:53;-1.80;99.90
46458;DHT22;32155;54.076;12.092;2023-12-04T23:45:18;-1.80;99.90
46458;DHT22;32155;54.076;12.092;2023-12-04T23:47:44;-1.90;99.90
46458;DHT22;32155;54.076;12.092;2023-12-04T23:50:09;-1.90;99.90
46458;DHT22;32155;54.076;12.092;2023-12-04T23:52:35;-2.00;99.90
46458;DHT22;32155;54.076;12.092;2023-12-04T23:55:00;-2.00;99.90
46458;DHT22;32155;54.076;12.092;2023-12-04T23:57:26;-2.00;99.90
46458;DHT22;32155;54.076;12.092;2023-12-04T23:59:54;-2.00;99.90
